Flight Track Log - Related Links

Times and Time Zones

All times are in EDT time to prevent confusion due to time zone crossing. See the UCA4838 flight status page for this flight to view local times or setup timezone preferences in your user account.

Time Position Orientation Groundspeed Altitude Reporting Facility
EDT Latitude Longitude Course Direction KTS MPH feet Rate Location/Type
Fri 10:31:27 AM 42.7319 -73.8081 193° South 124 143 1,200  Level Boston Center
Fri 10:32:39 AM 42.6797 -73.8239 193° South 184 212 2,400 1,083 Climbing Boston Center
Fri 10:33:40 AM 42.6353 -73.8653 214° Southwest 204 235 3,600 1,180 Climbing Boston Center
Fri 10:34:41 AM 42.5889 -73.9008 209° Southwest 199 229 4,800 1,175 Climbing Boston Center
Fri 10:36:03 AM 42.5217 -73.9528 210° Southwest 210 242 6,400 1,141 Climbing Boston Center
Fri 10:37:03 AM 42.4775 -73.9883 211° Southwest 210 242 7,500 1,250 Climbing Boston Center
Fri 10:38:03 AM 42.4247 -74.0319 211° Southwest 210 242 8,900 1,200 Climbing Boston Center
Fri 10:39:03 AM 42.3761 -74.0703 210° Southwest 210 242 9,900 550 Climbing Boston Center
Fri 10:40:03 AM 42.3150 -74.1192 211° Southwest 236 272 10,000 50 Climbing Boston Center
Fri 10:41:03 AM 42.2561 -74.1653 210° Southwest 261 300 10,000  Level Boston Center
Fri 10:42:03 AM 42.1842 -74.2222 210° Southwest 274 315 10,000  Level Boston Center
Fri 10:43:03 AM 42.1294 -74.2625 209° Southwest 274 315 10,000  Level Boston Center
Fri 10:44:03 AM 42.0578 -74.3108 207° Southwest 274 315 10,000 -250 Level Boston Center
Fri 10:45:03 AM 42.0028 -74.3539 210° Southwest 267 307 9,500 -500 Descending Boston Center
Fri 10:46:03 AM 41.9289 -74.4075 208° Southwest 274 315 9,000 -600 Descending Boston Center
Fri 10:47:03 AM 41.8697 -74.4503 208° Southwest 274 315 8,300 -550 Descending Boston Center
Fri 10:48:03 AM 41.8003 -74.5008 208° Southwest 274 315 7,900 -650 Descending Boston Center
Fri 10:49:03 AM 41.7392 -74.5322 201° Southwest 269 310 7,000 -450 Descending Boston Center
Fri 10:50:03 AM 41.6617 -74.5464 188° South 264 304 7,000 -400 Level Boston Center
Fri 10:51:03 AM 41.5969 -74.5581 188° South 258 297 6,200 -500 Descending Boston Center
Fri 10:52:03 AM 41.5194 -74.5722 188° South 258 297 6,000 -100 Descending Boston Center
Fri 10:53:03 AM 41.4611 -74.5814 187° South 252 290 6,000  Level Boston Center
Fri 10:54:37 AM 41.3500 -74.6167 193° South 237 273 6,000 -117 Level New York TRACON
Fri 10:55:37 AM 41.2833 -74.5667 151° Southeast 257 296 5,700 -500 Descending New York TRACON
Fri 10:56:37 AM 41.2333 -74.5000 135° Southeast 265 305 5,000 -350 Descending New York TRACON
Fri 10:57:37 AM 41.1833 -74.4500 143° Southeast 252 290 5,000  Level New York TRACON
Fri 10:58:37 AM 41.1333 -74.3833 135° Southeast 250 288 5,000  Level New York TRACON
Fri 10:59:37 AM 41.0833 -74.3167 135° Southeast 248 285 5,000  Level New York TRACON
Fri 11:00:37 AM 41.0333 -74.2667 143° Southeast 247 284 5,000 -500 Level New York TRACON
Fri 11:01:37 AM 40.9667 -74.2000 143° Southeast 257 296 4,000 -550 Descending New York TRACON
Fri 11:02:37 AM 40.9333 -74.1500 131° Southeast 197 227 3,900 -400 Descending New York TRACON
Fri 11:03:37 AM 40.8833 -74.1000 143° Southeast 198 228 3,200 -450 Descending New York TRACON
Fri 11:04:37 AM 40.8500 -74.0667 143° Southeast 197 227 3,000 -250 Descending New York TRACON
Fri 11:05:37 AM 40.8000 -74.1000 207° Southwest 183 211 2,700 -700 Descending New York TRACON
Fri 11:06:37 AM 40.7500 -74.1333 207° Southwest 169 194 1,600 -1,050 Descending New York TRACON
Fri 11:07:37 AM 40.7167 -74.1500 201° Southwest 118 136 600 -1,000 Descending New York TRACON
Fri 11:09:00 AM 40.6925 -74.1687 170° South  Level Estimated
Fri 11:16:00 AM 40.6925 -74.1687 170° South  Level Estimated
Fri 11:17:00 AM 40.6925 -74.1687 170° South  Level Estimated

Login

Don't have an account? Register now (free) for customized features, flight alerts, and more!